首页
METAR-TAF:

METAR-TAF

机场 :

伊瓜苏, 巴拉那州, 巴西

纬度: 25-31S, 经度: 054-35W, 海拔: 180米

当前天气观测

该预报发布于41分钟前的04:00 UTC
风速9节,风向
温度 25°C
湿度 61%
气压 1013 hPa
能见度10公里或以上
1500米以下无云,无积雨云

METAR: SBFI 230400Z 09009KT CAVOK 25/17 Q1013

时间: 01:41 (04:41 UTC)

预报

该预报发布于7小时和41分钟前的21:00 UTC
预报有效从23日的 00点(UTC)到 23日的 24点(UTC)
风速5节,风向
能见度10公里或以上
1500米以下无云,无积雨云
成为
从 23日的 06点(UTC)到 23日的 08点(UTC)
风速10节,风向
成为
从 23日的 18点(UTC)到 23日的 20点(UTC)
风速5节,风向西转西南
能见度10公里或以上
少量云层高于3000英尺
成为
从 23日的 22点(UTC)到 23日的 24点(UTC)
风速3节,风向

TAF: SBFI 222100Z 2300/2324 08005KT CAVOK TN23/2309Z TX34/2318Z BECMG 2306/2308 08010KT BECMG 2318/2320 24005KT 9999 FEW030 BECMG 2322/2324 17003KT RMK PAY

超过4000个机场的气象观测和天气预报(METAR&TAF报告)。

可查询的气象台以黄色和红色小点在地图上表示。

将鼠标移到小点上方,可查看气象台名称。

然后点击查看天气观测和预报。

如需切换地图:点击带黑十字的绿色按钮放大地图;点击带横线的绿色按钮缩小地图;或者点击绿色箭头查看邻近地区的地图。


METAR-TAF: